Map

Track Data

SID SEASON NUMBER BASIN SUBBASIN NAME ISO_TIME NATURE LAT LON WMO_WIND WMO_PRES WMO_AGENCY TRACK_TYPE DIST2LAND LANDFALL IFLAG USA_AGENCY USA_ATCF_ID USA_LAT USA_LON USA_RECORD USA_STATUS USA_WIND USA_PRES USA_SSHS USA_R34_NE USA_R34_SE USA_R34_SW USA_R34_NW USA_R50_NE USA_R50_SE USA_R50_SW USA_R50_NW USA_R64_NE USA_R64_SE USA_R64_SW USA_R64_NW USA_POCI USA_ROCI USA_RMW USA_EYE TOKYO_LAT TOKYO_LON TOKYO_GRADE TOKYO_WIND TOKYO_PRES TOKYO_R50_DIR TOKYO_R50_LONG TOKYO_R50_SHORT TOKYO_R30_DIR TOKYO_R30_LONG TOKYO_R30_SHORT TOKYO_LAND CMA_LAT CMA_LON CMA_CAT CMA_WIND CMA_PRES HKO_LAT HKO_LON HKO_CAT HKO_WIND HKO_PRES NEWDELHI_LAT NEWDELHI_LON NEWDELHI_GRADE NEWDELHI_WIND NEWDELHI_PRES NEWDELHI_CI NEWDELHI_DP NEWDELHI_POCI REUNION_LAT REUNION_LON REUNION_TYPE REUNION_WIND REUNION_PRES REUNION_TNUM REUNION_CI REUNION_RMW REUNION_R34_NE REUNION_R34_SE REUNION_R34_SW REUNION_R34_NW REUNION_R50_NE REUNION_R50_SE REUNION_R50_SW REUNION_R50_NW REUNION_R64_NE REUNION_R64_SE REUNION_R64_SW REUNION_R64_NW BOM_LAT BOM_LON BOM_TYPE BOM_WIND BOM_PRES BOM_TNUM BOM_CI BOM_RMW BOM_R34_NE BOM_R34_SE BOM_R34_SW BOM_R34_NW BOM_R50_NE BOM_R50_SE BOM_R50_SW BOM_R50_NW BOM_R64_NE BOM_R64_SE BOM_R64_SW BOM_R64_NW BOM_ROCI BOM_POCI BOM_EYE BOM_POS_METHOD BOM_PRES_METHOD NADI_LAT NADI_LON NADI_CAT NADI_WIND NADI_PRES WELLINGTON_LAT WELLINGTON_LON WELLINGTON_WIND WELLINGTON_PRES DS824_LAT DS824_LON DS824_STAGE DS824_WIND DS824_PRES TD9636_LAT TD9636_LON TD9636_STAGE TD9636_WIND TD9636_PRES TD9635_LAT TD9635_LON TD9635_WIND TD9635_PRES TD9635_ROCI NEUMANN_LAT NEUMANN_LON NEUMANN_CLASS NEUMANN_WIND NEUMANN_PRES MLC_LAT MLC_LON MLC_CLASS MLC_WIND MLC_PRES USA_GUST BOM_GUST BOM_GUST_PER REUNION_GUST REUNION_GUST_PER USA_SEAHGT USA_SEARAD_NE USA_SEARAD_SE USA_SEARAD_SW USA_SEARAD_NW STORM_SPEED STORM_DIR
1989196N14250 1989 62 EP MM NOT_NAMED 1989-07-15 00:00:00 TS 13.7000 -110.200 25 hurdat_epa main 842 835 O_____________ hurdat_epa EP071989 13.7000 -110.200 TD 25 -1 2 103
1989196N14250 1989 62 EP MM NOT_NAMED 1989-07-15 03:00:00 TS 13.6798 -110.110 main 835 835 P_____________ EP071989 13.6798 -110.110 TD 25 -1 1 270
1989196N14250 1989 62 EP MM NOT_NAMED 1989-07-15 06:00:00 TS 13.7000 -110.300 25 hurdat_epa main 850 850 O_____________ hurdat_epa EP071989 13.7000 -110.300 TD 25 -1 8 277
1989196N14250 1989 62 EP MM NOT_NAMED 1989-07-15 09:00:00 TS 13.7851 -110.957 main 895 895 P_____________ EP071989 13.7851 -110.958 TD 25 -1 16 277
1989196N14250 1989 62 EP MM NOT_NAMED 1989-07-15 12:00:00 TS 13.9000 -111.900 25 hurdat_epa main 956 956 O_____________ hurdat_epa EP071989 13.9000 -111.900 TD 25 -1 18 276
1989196N14250 1989 62 EP MM NOT_NAMED 1989-07-15 15:00:00 TS 13.9919 -112.833 main 1021 1021 P_____________ EP071989 13.9919 -112.833 TD 25 -1 20 276
1989196N14250 1989 62 EP MM NOT_NAMED 1989-07-15 18:00:00 TS 14.1000 -113.900 25 hurdat_epa main 1066 1066 O_____________ hurdat_epa EP071989 14.1000 -113.900 TD 25 -1 22 276
1989196N14250 1989 62 EP MM NOT_NAMED 1989-07-15 21:00:00 TS 14.2201 -115.128 main 1111 1111 P_____________ EP071989 14.2201 -115.128 TD 25 -1 24 277
1989196N14250 1989 62 EP MM NOT_NAMED 1989-07-16 00:00:00 TS 14.4000 -116.400 25 hurdat_epa main 1165 1165 O_____________ hurdat_epa EP071989 14.4000 -116.400 TD 25 -1 25 280
1989196N14250 1989 62 EP MM NOT_NAMED 1989-07-16 03:00:00 TS 14.6549 -117.617 main 1216 1216 P_____________ EP071989 14.6549 -117.617 TD 25 -1 23 285
1989196N14250 1989 62 EP MM NOT_NAMED 1989-07-16 06:00:00 TS 15.0000 -118.700 25 hurdat_epa main 1271 1271 O_____________ hurdat_epa EP071989 15.0000 -118.700 TD 25 -1 20 292
1989196N14250 1989 62 EP MM NOT_NAMED 1989-07-16 09:00:00 TS 15.4267 -119.568 main 1301 1292 P_____________ EP071989 15.4267 -119.568 TD 27 -1 18 300
1989196N14250 1989 62 EP MM NOT_NAMED 1989-07-16 12:00:00 TS 15.9000 -120.300 30 hurdat_epa main 1302 1299 O_____________ hurdat_epa EP071989 15.9000 -120.300 TD 30 -1 17 304
1989196N14250 1989 62 EP MM NOT_NAMED 1989-07-16 15:00:00 TS 16.3571 -121.015 main 1310 1310 P_____________ EP071989 16.3571 -121.015 TD 30 -1 16 304
1989196N14250 1989 62 EP MM NOT_NAMED 1989-07-16 18:00:00 TS 16.8000 -121.700 30 hurdat_epa main 1331 1331 O_____________ hurdat_epa EP071989 16.8000 -121.700 TD 30 -1 16 303
1989196N14250 1989 62 EP MM NOT_NAMED 1989-07-16 21:00:00 TS 17.1920 -122.378 main 1356 1356 P_____________ EP071989 17.1920 -122.378 TD 30 -1 16 301
1989196N14250 1989 62 EP MM NOT_NAMED 1989-07-17 00:00:00 TS 17.6000 -123.100 30 hurdat_epa main 1386 1386 O_____________ hurdat_epa EP071989 17.6000 -123.100 TD 30 -1 17 301
1989196N14250 1989 62 EP MM NOT_NAMED 1989-07-17 03:00:00 TS 18.0849 -123.928 main 1406 1406 P_____________ EP071989 18.0849 -123.928 TD 30 -1 19 302
1989196N14250 1989 62 EP MM NOT_NAMED 1989-07-17 06:00:00 TS 18.6000 -124.800 30 hurdat_epa main 1426 1425 O_____________ hurdat_epa EP071989 18.6000 -124.800 TD 30 -1 19 302
1989196N14250 1989 62 EP MM NOT_NAMED 1989-07-17 09:00:00 TS 19.0995 -125.643 main 1445 1445 P_____________ EP071989 19.0995 -125.643 TD 30 -1 19 302
1989196N14250 1989 62 EP MM NOT_NAMED 1989-07-17 12:00:00 TS 19.6000 -126.500 30 hurdat_epa main 1478 1478 O_____________ hurdat_epa EP071989 19.6000 -126.500 TD 30 -1 20 301
1989196N14250 1989 62 EP MM NOT_NAMED 1989-07-17 15:00:00 TS 20.1225 -127.415 main 1517 1517 P_____________ EP071989 20.1225 -127.415 TD 27 -1 20 301
1989196N14250 1989 62 EP MM NOT_NAMED 1989-07-17 18:00:00 TS 20.6000 -128.300 25 hurdat_epa main 1563 1563 O_____________ hurdat_epa EP071989 20.6000 -128.300 TD 25 -1 18 299
1989196N14250 1989 62 EP MM NOT_NAMED 1989-07-17 21:00:00 TS 20.9869 -129.081 main 1610 1610 P_____________ EP071989 20.9869 -129.081 TD 25 -1 16 297
1989196N14250 1989 62 EP MM NOT_NAMED 1989-07-18 00:00:00 TS 21.3000 -129.800 25 hurdat_epa main 1656 1656 O_____________ hurdat_epa EP071989 21.3000 -129.800 TD 25 -1 14 294
1989196N14250 1989 62 EP MM NOT_NAMED 1989-07-18 03:00:00 TS 21.5632 -130.502 main 1705 1705 P_____________ EP071989 21.5632 -130.502 TD 25 -1 14 291
1989196N14250 1989 62 EP MM NOT_NAMED 1989-07-18 06:00:00 TS 21.8000 -131.200 25 hurdat_epa main 1751 O_____________ hurdat_epa EP071989 21.8000 -131.200 TD 25 -1 14 290

About IBTrACS Database

This database is a web-friendly format of International Best Track Archive for Climate Stewardship (IBTrACS), a global best track data archive curated by NOAA dating back to 1842.

Updated: 2021-10-25